Bookmark and Share
Track history (hours):
 

USCGC Tern

Last reported at 2013-Nov-16 02:16 UTC. Time now 2014-Apr-17 09:49 UTC.
Position N 38°00' W 122°58'.
Warning: this ship's position is months out of date.

Length 26 m; draft 8 m.

Type: Military. MMSI: 366999711.

NotesDate/timePositionNaut miles runAvg speedWind from/ knotsBaromVisibWave heightAir tempDewpointWater temp
2013-Nov-16 02:16N 38°00' W 122°58'0 0.1
2013-Nov-16 01:28N 38°00' W 122°58'0 0.0
2013-Nov-16 00:28N 38°00' W 122°58'0 0.0
2013-Nov-15 23:33N 38°00' W 122°58'3 2.6
2013-Nov-15 22:33N 38°00' W 122°55'1 1.3
2013-Nov-15 21:33N 37°60' W 122°57'1 1.3
2013-Nov-15 20:28N 38°00' W 122°58'0 0.0
2013-Nov-15 17:21N 38°00' W 122°58'0 0.1
2013-Nov-15 16:33N 38°00' W 122°58'0 0.0
2013-Nov-15 15:28N 38°00' W 122°58'0 0.0
2013-Nov-15 14:28N 38°00' W 122°58'0 0.0
2013-Nov-15 13:28N 38°00' W 122°58'0 0.0
2013-Nov-15 12:16N 38°00' W 122°58'0 0.0
2013-Nov-15 11:22N 38°00' W 122°58'0 0.0
2013-Nov-15 10:22N 38°00' W 122°58'0 0.0
2013-Nov-15 09:28N 38°00' W 122°58'0 0.0
2013-Nov-15 08:22N 38°00' W 122°58'0 0.0
2013-Nov-15 07:33N 38°00' W 122°58'0 0.0
2013-Nov-15 06:33N 38°00' W 122°58'0 0.0
2013-Nov-15 05:33N 38°00' W 122°58'0 0.0
2013-Nov-15 04:22N 38°00' W 122°58'0 0.0
2013-Nov-15 03:28N 38°00' W 122°58'0 0.0
2013-Nov-15 02:16N 38°00' W 122°58'0 0.0
2013-Nov-15 01:28N 38°00' W 122°58'0 0.0
2013-Nov-15 00:22N 38°00' W 122°58'0 0.0
2013-Nov-14 23:27N 38°00' W 122°58'0 0.2
2013-Nov-14 22:33N 38°00' W 122°58'1111.1
2013-Nov-14 21:32N 37°54' W 122°46'1212.4
2013-Nov-14 20:32N 37°48' W 122°32'8 1.8
2013-Nov-14 16:04N 37°49' W 122°22'0 0.0
2013-Nov-14 15:28N 37°49' W 122°22'0 0.0
2013-Nov-14 14:28N 37°49' W 122°22'0 0.0
2013-Nov-14 13:28N 37°49' W 122°22'0 0.0
2013-Nov-14 12:29N 37°49' W 122°22'0 0.0
2013-Nov-14 11:23N 37°49' W 122°22'0 0.0
2013-Nov-14 10:29N 37°49' W 122°22'0 0.0
2013-Nov-14 09:23N 37°49' W 122°22'0 0.0
2013-Nov-14 08:31N 37°49' W 122°22'0 0.0
2013-Nov-14 07:22N 37°49' W 122°22'0 0.0
2013-Nov-14 06:28N 37°49' W 122°22'0 0.0
2013-Nov-14 05:31N 37°49' W 122°22'0 0.0
2013-Nov-14 04:22N 37°49' W 122°22'0 0.0
2013-Nov-14 03:23N 37°49' W 122°22'0 0.0
2013-Nov-14 02:23N 37°49' W 122°22'0 0.0
2013-Nov-14 01:23N 37°49' W 122°22'0 0.0
2013-Nov-14 00:23N 37°49' W 122°22'0 0.0
2013-Nov-13 23:23N 37°49' W 122°22'910.4
2013-Nov-13 22:33N 37°49' W 122°33'  

Dump ship's entire track history

sailing weather and tide predictions

USCGC Tern — NEOT — position and weather